sensor_id;sensor_type;location;lat;lon;timestamp;P1;durP1;ratioP1;P2;durP2;ratioP2
5559;SDS011;2803;47.916;8.074;2023-04-15T00:01:20;4.50;;;1.20;;
5559;SDS011;2803;47.916;8.074;2023-04-15T00:03:49;8.57;;;1.67;;
5559;SDS011;2803;47.916;8.074;2023-04-15T00:06:19;6.73;;;1.73;;
5559;SDS011;2803;47.916;8.074;2023-04-15T00:08:45;2.53;;;1.37;;
5559;SDS011;2803;47.916;8.074;2023-04-15T00:11:12;4.30;;;1.33;;
5559;SDS011;2803;47.916;8.074;2023-04-15T00:13:39;5.87;;;1.77;;
5559;SDS011;2803;47.916;8.074;2023-04-15T00:16:07;4.73;;;1.93;;
5559;SDS011;2803;47.916;8.074;2023-04-15T00:18:34;3.27;;;1.80;;
5559;SDS011;2803;47.916;8.074;2023-04-15T00:21:01;4.90;;;1.40;;
5559;SDS011;2803;47.916;8.074;2023-04-15T00:23:29;5.60;;;1.30;;
5559;SDS011;2803;47.916;8.074;2023-04-15T00:25:56;2.80;;;1.83;;
5559;SDS011;2803;47.916;8.074;2023-04-15T00:28:23;3.50;;;1.43;;
5559;SDS011;2803;47.916;8.074;2023-04-15T00:30:49;8.73;;;1.30;;
5559;SDS011;2803;47.916;8.074;2023-04-15T00:33:16;3.30;;;1.10;;
5559;SDS011;2803;47.916;8.074;2023-04-15T00:35:43;4.20;;;1.27;;
5559;SDS011;2803;47.916;8.074;2023-04-15T00:38:09;1.70;;;1.17;;
5559;SDS011;2803;47.916;8.074;2023-04-15T00:40:38;3.37;;;1.43;;
5559;SDS011;2803;47.916;8.074;2023-04-15T00:43:05;4.20;;;1.37;;
5559;SDS011;2803;47.916;8.074;2023-04-15T00:45:32;3.53;;;1.33;;
5559;SDS011;2803;47.916;8.074;2023-04-15T00:47:58;12.20;;;1.80;;
5559;SDS011;2803;47.916;8.074;2023-04-15T00:50:25;2.90;;;1.20;;
5559;SDS011;2803;47.916;8.074;2023-04-15T00:52:51;5.90;;;1.80;;
5559;SDS011;2803;47.916;8.074;2023-04-15T00:55:18;8.40;;;1.97;;
5559;SDS011;2803;47.916;8.074;2023-04-15T00:57:46;2.67;;;1.47;;
5559;SDS011;2803;47.916;8.074;2023-04-15T01:00:13;7.10;;;1.53;;
5559;SDS011;2803;47.916;8.074;2023-04-15T01:02:40;3.60;;;1.50;;
5559;SDS011;2803;47.916;8.074;2023-04-15T01:05:07;2.13;;;1.30;;
5559;SDS011;2803;47.916;8.074;2023-04-15T01:07:34;6.20;;;1.73;;
5559;SDS011;2803;47.916;8.074;2023-04-15T01:10:01;6.07;;;1.57;;
5559;SDS011;2803;47.916;8.074;2023-04-15T01:12:28;2.80;;;1.27;;
5559;SDS011;2803;47.916;8.074;2023-04-15T01:14:59;3.63;;;1.50;;
5559;SDS011;2803;47.916;8.074;2023-04-15T01:17:27;2.03;;;1.30;;
5559;SDS011;2803;47.916;8.074;2023-04-15T01:19:54;3.20;;;1.23;;
5559;SDS011;2803;47.916;8.074;2023-04-15T01:22:21;9.07;;;2.03;;
5559;SDS011;2803;47.916;8.074;2023-04-15T01:24:50;5.83;;;1.50;;
5559;SDS011;2803;47.916;8.074;2023-04-15T01:27:27;3.50;;;1.57;;
5559;SDS011;2803;47.916;8.074;2023-04-15T01:29:54;4.97;;;1.47;;
5559;SDS011;2803;47.916;8.074;2023-04-15T01:32:21;2.37;;;1.40;;
5559;SDS011;2803;47.916;8.074;2023-04-15T01:34:48;4.23;;;1.30;;
5559;SDS011;2803;47.916;8.074;2023-04-15T01:37:14;2.73;;;1.57;;
5559;SDS011;2803;47.916;8.074;2023-04-15T01:39:41;3.53;;;1.40;;
5559;SDS011;2803;47.916;8.074;2023-04-15T01:42:08;3.53;;;1.37;;
5559;SDS011;2803;47.916;8.074;2023-04-15T01:44:36;4.73;;;1.63;;
5559;SDS011;2803;47.916;8.074;2023-04-15T01:47:03;3.80;;;1.30;;
5559;SDS011;2803;47.916;8.074;2023-04-15T01:49:30;2.73;;;1.40;;
5559;SDS011;2803;47.916;8.074;2023-04-15T01:51:57;3.10;;;1.33;;
5559;SDS011;2803;47.916;8.074;2023-04-15T01:54:24;8.10;;;1.37;;
5559;SDS011;2803;47.916;8.074;2023-04-15T01:56:51;4.37;;;1.40;;
5559;SDS011;2803;47.916;8.074;2023-04-15T01:59:18;5.17;;;1.83;;
5559;SDS011;2803;47.916;8.074;2023-04-15T02:01:46;3.77;;;1.33;;
5559;SDS011;2803;47.916;8.074;2023-04-15T02:04:12;4.33;;;2.73;;
5559;SDS011;2803;47.916;8.074;2023-04-15T02:06:40;3.87;;;1.33;;
5559;SDS011;2803;47.916;8.074;2023-04-15T02:09:08;4.10;;;1.10;;
5559;SDS011;2803;47.916;8.074;2023-04-15T02:11:34;2.23;;;1.40;;
5559;SDS011;2803;47.916;8.074;2023-04-15T02:14:01;8.70;;;1.40;;
5559;SDS011;2803;47.916;8.074;2023-04-15T02:16:29;1.63;;;1.10;;
5559;SDS011;2803;47.916;8.074;2023-04-15T02:18:58;2.03;;;1.17;;
5559;SDS011;2803;47.916;8.074;2023-04-15T02:21:25;6.87;;;1.13;;
5559;SDS011;2803;47.916;8.074;2023-04-15T02:23:51;4.57;;;1.37;;
5559;SDS011;2803;47.916;8.074;2023-04-15T02:26:18;2.57;;;1.50;;
5559;SDS011;2803;47.916;8.074;2023-04-15T02:28:46;4.70;;;1.37;;
5559;SDS011;2803;47.916;8.074;2023-04-15T02:31:13;1.53;;;1.10;;
5559;SDS011;2803;47.916;8.074;2023-04-15T02:33:39;3.23;;;1.20;;
5559;SDS011;2803;47.916;8.074;2023-04-15T02:36:07;3.33;;;1.63;;
5559;SDS011;2803;47.916;8.074;2023-04-15T02:38:35;6.07;;;1.50;;
5559;SDS011;2803;47.916;8.074;2023-04-15T02:41:04;3.33;;;1.10;;
5559;SDS011;2803;47.916;8.074;2023-04-15T02:43:31;3.83;;;1.43;;
5559;SDS011;2803;47.916;8.074;2023-04-15T02:45:57;1.67;;;1.20;;
5559;SDS011;2803;47.916;8.074;2023-04-15T02:48:24;1.70;;;1.30;;
5559;SDS011;2803;47.916;8.074;2023-04-15T02:50:51;2.73;;;1.20;;
5559;SDS011;2803;47.916;8.074;2023-04-15T02:53:18;2.23;;;1.13;;
5559;SDS011;2803;47.916;8.074;2023-04-15T02:55:45;3.50;;;1.43;;
5559;SDS011;2803;47.916;8.074;2023-04-15T02:58:12;5.93;;;1.50;;
5559;SDS011;2803;47.916;8.074;2023-04-15T03:00:38;5.47;;;1.77;;
5559;SDS011;2803;47.916;8.074;2023-04-15T03:03:05;4.93;;;1.00;;
5559;SDS011;2803;47.916;8.074;2023-04-15T03:05:32;4.17;;;1.60;;
5559;SDS011;2803;47.916;8.074;2023-04-15T03:07:58;2.80;;;1.50;;
5559;SDS011;2803;47.916;8.074;2023-04-15T03:10:27;4.50;;;1.10;;
5559;SDS011;2803;47.916;8.074;2023-04-15T03:12:53;3.93;;;1.47;;
5559;SDS011;2803;47.916;8.074;2023-04-15T03:15:20;4.60;;;1.10;;
5559;SDS011;2803;47.916;8.074;2023-04-15T03:17:47;3.97;;;1.33;;
5559;SDS011;2803;47.916;8.074;2023-04-15T03:20:14;2.33;;;1.40;;
5559;SDS011;2803;47.916;8.074;2023-04-15T03:22:41;3.33;;;1.67;;
5559;SDS011;2803;47.916;8.074;2023-04-15T03:25:08;6.20;;;1.20;;
5559;SDS011;2803;47.916;8.074;2023-04-15T03:27:36;5.33;;;1.43;;
5559;SDS011;2803;47.916;8.074;2023-04-15T03:30:03;6.67;;;1.17;;
5559;SDS011;2803;47.916;8.074;2023-04-15T03:32:30;7.33;;;1.70;;
5559;SDS011;2803;47.916;8.074;2023-04-15T03:34:57;4.00;;;1.40;;
5559;SDS011;2803;47.916;8.074;2023-04-15T03:37:23;9.47;;;1.30;;
5559;SDS011;2803;47.916;8.074;2023-04-15T03:39:50;3.63;;;1.40;;
5559;SDS011;2803;47.916;8.074;2023-04-15T03:42:16;3.57;;;1.27;;
5559;SDS011;2803;47.916;8.074;2023-04-15T03:44:44;8.70;;;1.57;;
5559;SDS011;2803;47.916;8.074;2023-04-15T03:47:11;3.03;;;1.37;;
5559;SDS011;2803;47.916;8.074;2023-04-15T03:49:37;2.30;;;1.30;;
5559;SDS011;2803;47.916;8.074;2023-04-15T03:52:04;3.47;;;1.50;;
5559;SDS011;2803;47.916;8.074;2023-04-15T03:54:32;3.77;;;1.10;;
5559;SDS011;2803;47.916;8.074;2023-04-15T03:56:59;2.00;;;1.40;;
5559;SDS011;2803;47.916;8.074;2023-04-15T03:59:25;3.00;;;1.17;;
5559;SDS011;2803;47.916;8.074;2023-04-15T04:01:53;6.60;;;1.70;;
5559;SDS011;2803;47.916;8.074;2023-04-15T04:04:20;3.23;;;1.43;;
5559;SDS011;2803;47.916;8.074;2023-04-15T04:06:47;5.63;;;1.73;;
5559;SDS011;2803;47.916;8.074;2023-04-15T04:09:13;6.30;;;1.97;;
5559;SDS011;2803;47.916;8.074;2023-04-15T04:11:40;3.97;;;1.50;;
5559;SDS011;2803;47.916;8.074;2023-04-15T04:14:06;2.17;;;1.00;;
5559;SDS011;2803;47.916;8.074;2023-04-15T04:16:33;8.03;;;1.80;;
5559;SDS011;2803;47.916;8.074;2023-04-15T04:19:02;4.70;;;1.30;;
5559;SDS011;2803;47.916;8.074;2023-04-15T04:21:28;2.50;;;1.60;;
5559;SDS011;2803;47.916;8.074;2023-04-15T04:23:55;3.17;;;1.50;;
5559;SDS011;2803;47.916;8.074;2023-04-15T04:26:23;2.60;;;1.40;;
5559;SDS011;2803;47.916;8.074;2023-04-15T04:28:49;5.43;;;2.00;;
5559;SDS011;2803;47.916;8.074;2023-04-15T04:31:16;3.17;;;1.70;;
5559;SDS011;2803;47.916;8.074;2023-04-15T04:33:43;5.33;;;1.20;;
5559;SDS011;2803;47.916;8.074;2023-04-15T04:36:11;4.53;;;1.40;;
5559;SDS011;2803;47.916;8.074;2023-04-15T04:38:38;1.43;;;1.20;;
5559;SDS011;2803;47.916;8.074;2023-04-15T04:41:04;2.53;;;1.50;;
5559;SDS011;2803;47.916;8.074;2023-04-15T04:43:31;5.20;;;1.50;;
5559;SDS011;2803;47.916;8.074;2023-04-15T04:45:57;3.37;;;1.90;;
5559;SDS011;2803;47.916;8.074;2023-04-15T04:48:24;3.53;;;1.63;;
5559;SDS011;2803;47.916;8.074;2023-04-15T04:50:51;7.17;;;2.00;;
5559;SDS011;2803;47.916;8.074;2023-04-15T04:53:19;5.10;;;1.67;;
5559;SDS011;2803;47.916;8.074;2023-04-15T04:55:45;6.63;;;1.57;;
5559;SDS011;2803;47.916;8.074;2023-04-15T04:58:12;3.50;;;1.73;;
5559;SDS011;2803;47.916;8.074;2023-04-15T05:00:39;8.30;;;2.03;;
5559;SDS011;2803;47.916;8.074;2023-04-15T05:03:06;4.80;;;1.90;;
5559;SDS011;2803;47.916;8.074;2023-04-15T05:05:32;5.47;;;1.60;;
5559;SDS011;2803;47.916;8.074;2023-04-15T05:07:59;4.70;;;1.90;;
5559;SDS011;2803;47.916;8.074;2023-04-15T05:10:27;4.63;;;1.57;;
5559;SDS011;2803;47.916;8.074;2023-04-15T05:12:53;7.60;;;1.97;;
5559;SDS011;2803;47.916;8.074;2023-04-15T05:15:20;2.43;;;1.30;;
5559;SDS011;2803;47.916;8.074;2023-04-15T05:17:47;6.27;;;1.50;;
5559;SDS011;2803;47.916;8.074;2023-04-15T05:20:13;6.30;;;1.40;;
5559;SDS011;2803;47.916;8.074;2023-04-15T05:22:40;1.97;;;1.20;;
5559;SDS011;2803;47.916;8.074;2023-04-15T05:25:07;2.40;;;1.20;;
5559;SDS011;2803;47.916;8.074;2023-04-15T05:27:35;3.63;;;1.80;;
5559;SDS011;2803;47.916;8.074;2023-04-15T05:30:01;3.33;;;1.50;;
5559;SDS011;2803;47.916;8.074;2023-04-15T05:32:28;1.83;;;1.40;;
5559;SDS011;2803;47.916;8.074;2023-04-15T05:34:55;8.00;;;1.60;;
5559;SDS011;2803;47.916;8.074;2023-04-15T05:37:22;3.30;;;1.47;;
5559;SDS011;2803;47.916;8.074;2023-04-15T05:39:49;3.10;;;1.20;;
5559;SDS011;2803;47.916;8.074;2023-04-15T05:42:16;3.00;;;1.60;;
5559;SDS011;2803;47.916;8.074;2023-04-15T05:44:43;4.00;;;1.67;;
5559;SDS011;2803;47.916;8.074;2023-04-15T05:47:10;5.93;;;1.57;;
5559;SDS011;2803;47.916;8.074;2023-04-15T05:49:37;5.90;;;1.47;;
5559;SDS011;2803;47.916;8.074;2023-04-15T05:52:03;6.23;;;2.00;;
5559;SDS011;2803;47.916;8.074;2023-04-15T05:54:30;3.33;;;1.40;;
5559;SDS011;2803;47.916;8.074;2023-04-15T05:56:57;3.33;;;1.40;;
5559;SDS011;2803;47.916;8.074;2023-04-15T05:59:23;4.20;;;1.70;;
5559;SDS011;2803;47.916;8.074;2023-04-15T06:01:52;2.90;;;1.27;;
5559;SDS011;2803;47.916;8.074;2023-04-15T06:04:19;3.10;;;1.30;;
5559;SDS011;2803;47.916;8.074;2023-04-15T06:06:45;5.07;;;1.37;;
5559;SDS011;2803;47.916;8.074;2023-04-15T06:09:12;3.53;;;1.10;;
5559;SDS011;2803;47.916;8.074;2023-04-15T06:11:38;4.87;;;1.50;;
5559;SDS011;2803;47.916;8.074;2023-04-15T06:14:05;7.97;;;1.80;;
5559;SDS011;2803;47.916;8.074;2023-04-15T06:16:32;4.27;;;1.60;;
5559;SDS011;2803;47.916;8.074;2023-04-15T06:19:01;3.80;;;1.90;;
5559;SDS011;2803;47.916;8.074;2023-04-15T06:21:28;5.30;;;1.70;;
5559;SDS011;2803;47.916;8.074;2023-04-15T06:23:55;4.53;;;1.47;;
5559;SDS011;2803;47.916;8.074;2023-04-15T06:26:22;5.43;;;1.90;;
5559;SDS011;2803;47.916;8.074;2023-04-15T06:28:48;3.60;;;1.90;;
5559;SDS011;2803;47.916;8.074;2023-04-15T06:31:16;4.00;;;1.67;;
5559;SDS011;2803;47.916;8.074;2023-04-15T06:33:43;4.80;;;1.20;;
5559;SDS011;2803;47.916;8.074;2023-04-15T06:36:11;2.83;;;1.40;;
5559;SDS011;2803;47.916;8.074;2023-04-15T06:38:38;2.10;;;1.37;;
5559;SDS011;2803;47.916;8.074;2023-04-15T06:41:04;3.90;;;1.60;;
5559;SDS011;2803;47.916;8.074;2023-04-15T06:43:31;5.07;;;1.33;;
5559;SDS011;2803;47.916;8.074;2023-04-15T06:45:58;5.20;;;1.70;;
5559;SDS011;2803;47.916;8.074;2023-04-15T06:48:24;4.43;;;1.40;;
5559;SDS011;2803;47.916;8.074;2023-04-15T06:50:51;2.90;;;1.20;;
5559;SDS011;2803;47.916;8.074;2023-04-15T06:53:19;5.93;;;1.20;;
5559;SDS011;2803;47.916;8.074;2023-04-15T06:55:46;6.13;;;1.60;;
5559;SDS011;2803;47.916;8.074;2023-04-15T06:58:13;2.50;;;1.30;;
5559;SDS011;2803;47.916;8.074;2023-04-15T07:00:41;6.63;;;1.67;;
5559;SDS011;2803;47.916;8.074;2023-04-15T07:03:08;2.53;;;1.10;;
5559;SDS011;2803;47.916;8.074;2023-04-15T07:05:36;2.90;;;1.53;;
5559;SDS011;2803;47.916;8.074;2023-04-15T07:08:03;3.77;;;1.53;;
5559;SDS011;2803;47.916;8.074;2023-04-15T07:10:31;6.10;;;1.87;;
5559;SDS011;2803;47.916;8.074;2023-04-15T07:12:58;4.13;;;1.73;;
5559;SDS011;2803;47.916;8.074;2023-04-15T07:15:25;6.60;;;1.40;;
5559;SDS011;2803;47.916;8.074;2023-04-15T07:17:52;3.60;;;1.20;;
5559;SDS011;2803;47.916;8.074;2023-04-15T07:20:20;7.50;;;1.97;;
5559;SDS011;2803;47.916;8.074;2023-04-15T07:22:46;4.03;;;1.37;;
5559;SDS011;2803;47.916;8.074;2023-04-15T07:25:13;2.60;;;1.20;;
5559;SDS011;2803;47.916;8.074;2023-04-15T07:27:41;4.23;;;1.43;;
5559;SDS011;2803;47.916;8.074;2023-04-15T07:30:08;1.93;;;1.07;;
5559;SDS011;2803;47.916;8.074;2023-04-15T07:32:35;4.93;;;1.30;;
5559;SDS011;2803;47.916;8.074;2023-04-15T07:35:02;4.10;;;1.13;;
5559;SDS011;2803;47.916;8.074;2023-04-15T07:37:28;4.80;;;1.10;;
5559;SDS011;2803;47.916;8.074;2023-04-15T07:39:55;2.37;;;1.10;;
5559;SDS011;2803;47.916;8.074;2023-04-15T07:42:22;2.93;;;1.20;;
5559;SDS011;2803;47.916;8.074;2023-04-15T07:44:50;5.57;;;1.43;;
5559;SDS011;2803;47.916;8.074;2023-04-15T07:47:16;5.87;;;1.60;;
5559;SDS011;2803;47.916;8.074;2023-04-15T07:49:43;8.30;;;1.97;;
5559;SDS011;2803;47.916;8.074;2023-04-15T07:52:10;7.00;;;1.70;;
5559;SDS011;2803;47.916;8.074;2023-04-15T07:54:36;5.20;;;1.50;;
5559;SDS011;2803;47.916;8.074;2023-04-15T07:57:03;5.27;;;1.50;;
5559;SDS011;2803;47.916;8.074;2023-04-15T07:59:30;8.23;;;1.90;;
5559;SDS011;2803;47.916;8.074;2023-04-15T08:01:58;6.20;;;1.47;;
5559;SDS011;2803;47.916;8.074;2023-04-15T08:04:25;5.47;;;1.30;;
5559;SDS011;2803;47.916;8.074;2023-04-15T08:06:52;3.23;;;1.33;;
5559;SDS011;2803;47.916;8.074;2023-04-15T08:09:19;3.83;;;1.20;;
5559;SDS011;2803;47.916;8.074;2023-04-15T08:11:47;1.80;;;1.10;;
5559;SDS011;2803;47.916;8.074;2023-04-15T08:14:14;8.47;;;1.53;;
5559;SDS011;2803;47.916;8.074;2023-04-15T08:16:40;4.63;;;1.37;;
5559;SDS011;2803;47.916;8.074;2023-04-15T08:19:08;2.63;;;1.03;;
5559;SDS011;2803;47.916;8.074;2023-04-15T08:21:35;5.37;;;1.07;;
5559;SDS011;2803;47.916;8.074;2023-04-15T08:24:02;3.77;;;0.93;;
5559;SDS011;2803;47.916;8.074;2023-04-15T08:26:28;1.53;;;0.97;;
5559;SDS011;2803;47.916;8.074;2023-04-15T08:28:55;3.93;;;1.17;;
5559;SDS011;2803;47.916;8.074;2023-04-15T08:31:22;5.80;;;1.37;;
5559;SDS011;2803;47.916;8.074;2023-04-15T08:33:48;1.80;;;1.10;;
5559;SDS011;2803;47.916;8.074;2023-04-15T08:36:18;6.33;;;1.20;;
5559;SDS011;2803;47.916;8.074;2023-04-15T08:38:45;3.30;;;1.77;;
5559;SDS011;2803;47.916;8.074;2023-04-15T08:41:15;5.83;;;1.17;;
5559;SDS011;2803;47.916;8.074;2023-04-15T08:43:48;4.83;;;1.30;;
5559;SDS011;2803;47.916;8.074;2023-04-15T08:46:18;1.83;;;0.90;;
5559;SDS011;2803;47.916;8.074;2023-04-15T08:48:46;1.77;;;1.30;;
5559;SDS011;2803;47.916;8.074;2023-04-15T08:51:13;3.60;;;1.37;;
5559;SDS011;2803;47.916;8.074;2023-04-15T08:53:43;2.53;;;1.00;;
5559;SDS011;2803;47.916;8.074;2023-04-15T08:56:11;3.67;;;1.20;;
5559;SDS011;2803;47.916;8.074;2023-04-15T08:58:39;5.73;;;1.30;;
5559;SDS011;2803;47.916;8.074;2023-04-15T09:01:06;3.97;;;1.30;;
5559;SDS011;2803;47.916;8.074;2023-04-15T09:03:33;7.00;;;1.23;;
5559;SDS011;2803;47.916;8.074;2023-04-15T09:06:00;3.10;;;0.90;;
5559;SDS011;2803;47.916;8.074;2023-04-15T09:08:29;6.53;;;1.10;;
5559;SDS011;2803;47.916;8.074;2023-04-15T09:10:57;3.17;;;1.03;;
5559;SDS011;2803;47.916;8.074;2023-04-15T09:13:24;5.90;;;1.33;;
5559;SDS011;2803;47.916;8.074;2023-04-15T09:15:51;4.20;;;1.47;;
5559;SDS011;2803;47.916;8.074;2023-04-15T09:18:26;3.77;;;1.37;;
5559;SDS011;2803;47.916;8.074;2023-04-15T09:20:54;3.13;;;1.07;;
5559;SDS011;2803;47.916;8.074;2023-04-15T09:23:21;4.03;;;1.60;;
5559;SDS011;2803;47.916;8.074;2023-04-15T09:25:48;3.67;;;1.70;;
5559;SDS011;2803;47.916;8.074;2023-04-15T09:28:22;2.20;;;1.03;;
5559;SDS011;2803;47.916;8.074;2023-04-15T09:30:50;3.20;;;1.37;;
5559;SDS011;2803;47.916;8.074;2023-04-15T09:33:20;3.23;;;1.00;;
5559;SDS011;2803;47.916;8.074;2023-04-15T09:35:55;4.70;;;1.00;;
5559;SDS011;2803;47.916;8.074;2023-04-15T09:38:23;3.20;;;1.50;;
5559;SDS011;2803;47.916;8.074;2023-04-15T09:40:49;5.23;;;1.80;;
5559;SDS011;2803;47.916;8.074;2023-04-15T09:43:17;2.03;;;1.03;;
5559;SDS011;2803;47.916;8.074;2023-04-15T09:45:46;3.80;;;0.80;;
5559;SDS011;2803;47.916;8.074;2023-04-15T09:48:15;2.57;;;1.10;;
5559;SDS011;2803;47.916;8.074;2023-04-15T09:50:44;6.53;;;1.30;;
5559;SDS011;2803;47.916;8.074;2023-04-15T09:53:15;2.80;;;1.23;;
5559;SDS011;2803;47.916;8.074;2023-04-15T09:55:44;2.03;;;0.90;;
5559;SDS011;2803;47.916;8.074;2023-04-15T09:58:18;3.97;;;1.00;;
5559;SDS011;2803;47.916;8.074;2023-04-15T10:00:46;5.63;;;1.93;;
5559;SDS011;2803;47.916;8.074;2023-04-15T10:03:14;5.07;;;1.50;;
5559;SDS011;2803;47.916;8.074;2023-04-15T10:05:45;3.83;;;1.10;;
5559;SDS011;2803;47.916;8.074;2023-04-15T10:08:14;3.50;;;1.23;;
5559;SDS011;2803;47.916;8.074;2023-04-15T10:10:44;4.23;;;1.67;;
5559;SDS011;2803;47.916;8.074;2023-04-15T10:13:12;4.43;;;1.43;;
5559;SDS011;2803;47.916;8.074;2023-04-15T10:15:42;2.10;;;1.17;;
5559;SDS011;2803;47.916;8.074;2023-04-15T10:18:14;2.70;;;1.17;;
5559;SDS011;2803;47.916;8.074;2023-04-15T10:20:42;2.17;;;1.23;;
5559;SDS011;2803;47.916;8.074;2023-04-15T10:23:11;3.67;;;1.83;;
5559;SDS011;2803;47.916;8.074;2023-04-15T10:25:38;3.23;;;1.40;;
5559;SDS011;2803;47.916;8.074;2023-04-15T10:28:05;1.93;;;1.17;;
5559;SDS011;2803;47.916;8.074;2023-04-15T10:30:32;8.53;;;1.50;;
5559;SDS011;2803;47.916;8.074;2023-04-15T10:33:01;2.50;;;0.90;;
5559;SDS011;2803;47.916;8.074;2023-04-15T10:35:29;2.90;;;1.43;;
5559;SDS011;2803;47.916;8.074;2023-04-15T10:37:56;1.83;;;1.20;;
5559;SDS011;2803;47.916;8.074;2023-04-15T10:40:25;2.50;;;1.30;;
5559;SDS011;2803;47.916;8.074;2023-04-15T10:42:55;3.07;;;1.40;;
5559;SDS011;2803;47.916;8.074;2023-04-15T10:45:24;2.80;;;1.13;;
5559;SDS011;2803;47.916;8.074;2023-04-15T10:47:53;2.50;;;1.50;;
5559;SDS011;2803;47.916;8.074;2023-04-15T10:50:22;3.93;;;1.60;;
5559;SDS011;2803;47.916;8.074;2023-04-15T10:52:51;3.53;;;1.37;;
5559;SDS011;2803;47.916;8.074;2023-04-15T10:55:20;6.97;;;1.70;;
5559;SDS011;2803;47.916;8.074;2023-04-15T10:57:50;2.90;;;1.73;;
5559;SDS011;2803;47.916;8.074;2023-04-15T11:00:18;4.30;;;1.70;;
5559;SDS011;2803;47.916;8.074;2023-04-15T11:02:46;2.20;;;1.50;;
5559;SDS011;2803;47.916;8.074;2023-04-15T11:05:17;7.33;;;1.90;;
5559;SDS011;2803;47.916;8.074;2023-04-15T11:07:48;3.40;;;1.90;;
5559;SDS011;2803;47.916;8.074;2023-04-15T11:13:14;2.67;;;1.33;;
5559;SDS011;2803;47.916;8.074;2023-04-15T11:15:42;4.17;;;1.53;;
5559;SDS011;2803;47.916;8.074;2023-04-15T11:18:10;4.73;;;2.20;;
5559;SDS011;2803;47.916;8.074;2023-04-15T11:20:38;4.47;;;2.43;;
5559;SDS011;2803;47.916;8.074;2023-04-15T11:23:07;5.40;;;1.60;;
5559;SDS011;2803;47.916;8.074;2023-04-15T11:25:34;8.23;;;2.00;;
5559;SDS011;2803;47.916;8.074;2023-04-15T11:28:02;5.40;;;2.00;;
5559;SDS011;2803;47.916;8.074;2023-04-15T11:30:30;3.83;;;1.60;;
5559;SDS011;2803;47.916;8.074;2023-04-15T11:32:59;5.30;;;2.10;;
5559;SDS011;2803;47.916;8.074;2023-04-15T11:35:28;3.63;;;2.23;;
5559;SDS011;2803;47.916;8.074;2023-04-15T11:37:55;2.80;;;1.70;;
5559;SDS011;2803;47.916;8.074;2023-04-15T11:40:24;5.33;;;1.93;;
5559;SDS011;2803;47.916;8.074;2023-04-15T11:43:02;3.63;;;1.87;;
5559;SDS011;2803;47.916;8.074;2023-04-15T11:45:30;4.50;;;2.07;;
5559;SDS011;2803;47.916;8.074;2023-04-15T11:48:03;49.00;;;4.30;;
5559;SDS011;2803;47.916;8.074;2023-04-15T11:50:31;11.70;;;1.93;;
5559;SDS011;2803;47.916;8.074;2023-04-15T11:52:59;4.60;;;1.50;;
5559;SDS011;2803;47.916;8.074;2023-04-15T11:55:28;3.07;;;2.23;;
5559;SDS011;2803;47.916;8.074;2023-04-15T12:00:39;5.60;;;2.10;;
5559;SDS011;2803;47.916;8.074;2023-04-15T12:03:14;6.77;;;1.93;;
5559;SDS011;2803;47.916;8.074;2023-04-15T12:11:29;4.53;;;2.47;;
5559;SDS011;2803;47.916;8.074;2023-04-15T12:13:58;6.57;;;3.20;;
5559;SDS011;2803;47.916;8.074;2023-04-15T12:16:29;6.80;;;2.47;;
5559;SDS011;2803;47.916;8.074;2023-04-15T12:18:57;5.17;;;2.50;;
5559;SDS011;2803;47.916;8.074;2023-04-15T12:21:25;9.37;;;3.07;;
5559;SDS011;2803;47.916;8.074;2023-04-15T12:23:54;8.20;;;3.60;;
5559;SDS011;2803;47.916;8.074;2023-04-15T12:26:25;7.00;;;2.83;;
5559;SDS011;2803;47.916;8.074;2023-04-15T12:28:54;4.80;;;2.80;;
5559;SDS011;2803;47.916;8.074;2023-04-15T12:31:21;6.40;;;2.57;;
5559;SDS011;2803;47.916;8.074;2023-04-15T12:33:48;5.77;;;2.93;;
5559;SDS011;2803;47.916;8.074;2023-04-15T12:36:15;4.50;;;3.23;;
5559;SDS011;2803;47.916;8.074;2023-04-15T12:38:41;5.47;;;2.43;;
5559;SDS011;2803;47.916;8.074;2023-04-15T12:41:08;5.73;;;3.00;;
5559;SDS011;2803;47.916;8.074;2023-04-15T12:43:34;6.47;;;2.60;;
5559;SDS011;2803;47.916;8.074;2023-04-15T12:46:02;7.30;;;2.87;;
5559;SDS011;2803;47.916;8.074;2023-04-15T12:48:30;4.50;;;2.87;;
5559;SDS011;2803;47.916;8.074;2023-04-15T12:50:57;6.17;;;2.87;;
5559;SDS011;2803;47.916;8.074;2023-04-15T12:53:25;6.37;;;2.80;;
5559;SDS011;2803;47.916;8.074;2023-04-15T12:55:52;3.77;;;2.63;;
5559;SDS011;2803;47.916;8.074;2023-04-15T12:58:19;5.80;;;2.70;;
5559;SDS011;2803;47.916;8.074;2023-04-15T13:00:46;3.40;;;2.27;;
5559;SDS011;2803;47.916;8.074;2023-04-15T13:03:14;4.37;;;2.77;;
5559;SDS011;2803;47.916;8.074;2023-04-15T13:05:41;6.93;;;2.50;;
5559;SDS011;2803;47.916;8.074;2023-04-15T13:08:08;4.20;;;2.63;;
5559;SDS011;2803;47.916;8.074;2023-04-15T13:10:34;8.80;;;3.10;;
5559;SDS011;2803;47.916;8.074;2023-04-15T13:13:01;9.03;;;3.47;;
5559;SDS011;2803;47.916;8.074;2023-04-15T13:15:28;5.80;;;3.13;;
5559;SDS011;2803;47.916;8.074;2023-04-15T13:17:55;8.00;;;2.87;;
5559;SDS011;2803;47.916;8.074;2023-04-15T13:20:23;7.60;;;3.00;;
5559;SDS011;2803;47.916;8.074;2023-04-15T13:22:51;8.50;;;3.10;;
5559;SDS011;2803;47.916;8.074;2023-04-15T13:25:18;6.77;;;3.00;;
5559;SDS011;2803;47.916;8.074;2023-04-15T13:27:45;5.90;;;3.00;;
5559;SDS011;2803;47.916;8.074;2023-04-15T13:30:12;9.70;;;3.90;;
5559;SDS011;2803;47.916;8.074;2023-04-15T13:32:38;4.00;;;2.60;;
5559;SDS011;2803;47.916;8.074;2023-04-15T13:35:05;7.13;;;3.03;;
5559;SDS011;2803;47.916;8.074;2023-04-15T13:37:33;7.20;;;2.93;;
5559;SDS011;2803;47.916;8.074;2023-04-15T13:40:00;5.67;;;3.03;;
5559;SDS011;2803;47.916;8.074;2023-04-15T13:42:27;8.77;;;3.20;;
5559;SDS011;2803;47.916;8.074;2023-04-15T13:44:53;7.57;;;3.40;;
5559;SDS011;2803;47.916;8.074;2023-04-15T13:47:20;5.77;;;2.87;;
5559;SDS011;2803;47.916;8.074;2023-04-15T13:49:47;5.40;;;2.80;;
5559;SDS011;2803;47.916;8.074;2023-04-15T13:52:13;2.97;;;2.30;;
5559;SDS011;2803;47.916;8.074;2023-04-15T13:54:41;7.03;;;2.63;;
5559;SDS011;2803;47.916;8.074;2023-04-15T13:57:08;6.27;;;3.27;;
5559;SDS011;2803;47.916;8.074;2023-04-15T13:59:34;9.90;;;3.23;;
5559;SDS011;2803;47.916;8.074;2023-04-15T14:02:01;3.97;;;2.70;;
5559;SDS011;2803;47.916;8.074;2023-04-15T14:04:27;3.77;;;2.53;;
5559;SDS011;2803;47.916;8.074;2023-04-15T14:06:55;7.93;;;3.00;;
5559;SDS011;2803;47.916;8.074;2023-04-15T14:09:23;3.93;;;2.70;;
5559;SDS011;2803;47.916;8.074;2023-04-15T14:11:51;5.07;;;2.53;;
5559;SDS011;2803;47.916;8.074;2023-04-15T14:14:18;8.40;;;2.23;;
5559;SDS011;2803;47.916;8.074;2023-04-15T14:16:44;4.97;;;2.20;;
5559;SDS011;2803;47.916;8.074;2023-04-15T14:19:11;4.03;;;2.17;;
5559;SDS011;2803;47.916;8.074;2023-04-15T14:21:40;11.20;;;2.53;;
5559;SDS011;2803;47.916;8.074;2023-04-15T14:24:07;4.70;;;2.90;;
5559;SDS011;2803;47.916;8.074;2023-04-15T14:26:33;2.90;;;2.03;;
5559;SDS011;2803;47.916;8.074;2023-04-15T14:29:01;6.10;;;2.00;;
5559;SDS011;2803;47.916;8.074;2023-04-15T14:31:28;3.27;;;1.90;;
5559;SDS011;2803;47.916;8.074;2023-04-15T14:33:54;9.80;;;2.50;;
5559;SDS011;2803;47.916;8.074;2023-04-15T14:36:21;4.90;;;2.03;;
5559;SDS011;2803;47.916;8.074;2023-04-15T14:38:48;8.03;;;2.63;;
5559;SDS011;2803;47.916;8.074;2023-04-15T14:41:14;10.50;;;2.80;;
5559;SDS011;2803;47.916;8.074;2023-04-15T14:43:41;7.20;;;2.27;;
5559;SDS011;2803;47.916;8.074;2023-04-15T14:46:10;5.70;;;2.30;;
5559;SDS011;2803;47.916;8.074;2023-04-15T14:48:38;9.53;;;2.20;;
5559;SDS011;2803;47.916;8.074;2023-04-15T14:51:05;5.70;;;2.00;;
5559;SDS011;2803;47.916;8.074;2023-04-15T14:53:31;3.27;;;1.97;;
5559;SDS011;2803;47.916;8.074;2023-04-15T14:55:58;7.93;;;1.90;;
5559;SDS011;2803;47.916;8.074;2023-04-15T14:58:25;5.00;;;2.13;;
5559;SDS011;2803;47.916;8.074;2023-04-15T15:00:51;6.73;;;2.30;;
5559;SDS011;2803;47.916;8.074;2023-04-15T15:03:19;7.50;;;2.23;;
5559;SDS011;2803;47.916;8.074;2023-04-15T15:05:46;6.60;;;2.10;;
5559;SDS011;2803;47.916;8.074;2023-04-15T15:08:12;3.80;;;1.80;;
5559;SDS011;2803;47.916;8.074;2023-04-15T15:10:39;8.53;;;2.37;;
5559;SDS011;2803;47.916;8.074;2023-04-15T15:13:07;4.10;;;2.00;;
5559;SDS011;2803;47.916;8.074;2023-04-15T15:15:35;5.33;;;2.30;;
5559;SDS011;2803;47.916;8.074;2023-04-15T15:18:03;5.93;;;2.37;;
5559;SDS011;2803;47.916;8.074;2023-04-15T15:20:31;4.33;;;2.03;;
5559;SDS011;2803;47.916;8.074;2023-04-15T15:22:58;5.13;;;1.83;;
5559;SDS011;2803;47.916;8.074;2023-04-15T15:25:25;4.90;;;1.97;;
5559;SDS011;2803;47.916;8.074;2023-04-15T15:27:51;5.90;;;2.57;;